Time;durP1;ratioP1;P1;durP2;ratioP2;P2;SDS_P1;SDS_P2;PMS_P1;PMS_P2;Temp;Humidity;BMP_temperature;BMP_pressure;BME280_temperature;BME280_humidity;BME280_pressure;Samples;Min_cycle;Max_cycle;Signal;HPM_P1;HPM_P2
2021/12/09 00:01:07;;;;;;;55.75;30.88;;;;;;;;;;5075055;28;20017;-83
2021/12/09 00:03:36;;;;;;;50.05;28.00;;;;;;;;;;5037458;28;20104;-82
2021/12/09 00:06:04;;;;;;;46.15;25.15;;;;;;;;;;5055808;28;20361;-79
2021/12/09 00:08:31;;;;;;;42.08;22.25;;;;;;;;;;5065197;28;20068;-84
2021/12/09 00:10:59;;;;;;;36.85;20.17;;;;;;;;;;5074471;28;20483;-83
2021/12/09 00:13:27;;;;;;;39.03;23.10;;;;;;;;;;5058595;28;20025;-80
2021/12/09 00:15:53;;;;;;;40.70;22.35;;;;;;;;;;5046056;28;20037;-81
2021/12/09 00:18:19;;;;;;;42.08;22.35;;;;;;;;;;5065289;28;20065;-82
2021/12/09 00:20:46;;;;;;;39.65;22.05;;;;;;;;;;5056698;28;20398;-81
2021/12/09 00:23:13;;;;;;;35.75;21.30;;;;;;;;;;5064982;28;20112;-82
2021/12/09 00:25:39;;;;;;;34.75;21.23;;;;;;;;;;5052397;28;20119;-82
2021/12/09 00:28:06;;;;;;;39.75;22.67;;;;;;;;;;5070845;28;20040;-81
2021/12/09 00:30:32;;;;;;;40.33;23.77;;;;;;;;;;5046871;28;20025;-81
2021/12/09 00:33:00;;;;;;;38.85;22.80;;;;;;;;;;5051270;28;20044;-82
2021/12/09 00:35:54;;;;;;;41.40;24.25;;;;;;;;;;5066855;28;20044;-83
2021/12/09 00:38:21;;;;;;;42.60;24.08;;;;;;;;;;5056604;28;20086;-81
2021/12/09 00:40:48;;;;;;;49.88;27.20;;;;;;;;;;5080501;28;20077;-82
2021/12/09 00:43:17;;;;;;;49.22;26.67;;;;;;;;;;5062678;28;20112;-82
2021/12/09 00:45:44;;;;;;;41.13;25.23;;;;;;;;;;5063780;28;20028;-82
2021/12/09 00:48:11;;;;;;;49.13;26.75;;;;;;;;;;5073682;28;20033;-82
2021/12/09 00:50:37;;;;;;;47.42;25.63;;;;;;;;;;5060147;28;20037;-81
2021/12/09 00:53:03;;;;;;;47.80;27.20;;;;;;;;;;5053969;28;20033;-82
2021/12/09 00:55:30;;;;;;;41.22;23.13;;;;;;;;;;5054022;28;20093;-82
2021/12/09 00:57:56;;;;;;;47.28;25.13;;;;;;;;;;5054340;28;20112;-83
2021/12/09 01:00:23;;;;;;;49.47;27.17;;;;;;;;;;5068223;28;20024;-82
2021/12/09 01:02:49;;;;;;;53.47;28.55;;;;;;;;;;5065424;28;20577;-82
2021/12/09 01:05:16;;;;;;;52.45;30.00;;;;;;;;;;5069207;28;20074;-82
2021/12/09 01:07:42;;;;;;;48.08;29.33;;;;;;;;;;5063847;28;20036;-83
2021/12/09 01:10:11;;;;;;;49.83;28.52;;;;;;;;;;5055044;28;20123;-81
2021/12/09 01:12:37;;;;;;;50.22;27.15;;;;;;;;;;5072186;28;20029;-83
2021/12/09 01:15:04;;;;;;;47.10;26.88;;;;;;;;;;5069490;28;20031;-82
2021/12/09 01:17:31;;;;;;;46.13;26.80;;;;;;;;;;5059913;28;20036;-83
2021/12/09 01:19:57;;;;;;;48.35;28.88;;;;;;;;;;5043878;28;20100;-84
2021/12/09 01:22:30;;;;;;;50.60;28.30;;;;;;;;;;5051098;28;20098;-84
2021/12/09 01:24:57;;;;;;;48.38;26.40;;;;;;;;;;5066965;28;20116;-81
2021/12/09 01:27:23;;;;;;;45.15;26.40;;;;;;;;;;5070561;28;20031;-82
2021/12/09 01:29:54;;;;;;;40.85;22.63;;;;;;;;;;5067625;28;20035;-81
2021/12/09 01:32:29;;;;;;;39.00;22.50;;;;;;;;;;5046487;28;20067;-82
2021/12/09 01:34:55;;;;;;;38.05;20.63;;;;;;;;;;5053842;28;20090;-82
2021/12/09 01:37:21;;;;;;;35.35;19.63;;;;;;;;;;5066008;28;20500;-84
2021/12/09 01:39:48;;;;;;;31.90;19.40;;;;;;;;;;5070330;28;20032;-84
2021/12/09 01:42:16;;;;;;;33.75;19.98;;;;;;;;;;5051311;28;20036;-82
2021/12/09 01:44:43;;;;;;;26.95;16.40;;;;;;;;;;5071758;28;20031;-82
2021/12/09 01:47:09;;;;;;;30.45;16.30;;;;;;;;;;5072145;28;20025;-82
2021/12/09 01:49:36;;;;;;;31.73;16.83;;;;;;;;;;5072409;28;20032;-82
2021/12/09 01:52:03;;;;;;;28.92;16.92;;;;;;;;;;5067343;28;20029;-84
2021/12/09 01:54:29;;;;;;;31.13;17.25;;;;;;;;;;5043932;28;20033;-83
2021/12/09 01:56:56;;;;;;;32.47;18.02;;;;;;;;;;5044012;28;20025;-83
2021/12/09 01:59:22;;;;;;;35.47;16.98;;;;;;;;;;5044054;28;20520;-82
2021/12/09 02:01:50;;;;;;;34.45;17.15;;;;;;;;;;5046544;28;20488;-84
2021/12/09 02:04:16;;;;;;;34.40;17.48;;;;;;;;;;5064854;28;20111;-84
2021/12/09 02:06:44;;;;;;;36.88;18.33;;;;;;;;;;5068926;28;20035;-81
2021/12/09 02:09:11;;;;;;;35.80;19.90;;;;;;;;;;5059900;28;20124;-82
2021/12/09 02:11:38;;;;;;;34.40;18.10;;;;;;;;;;5064424;28;20472;-83
2021/12/09 02:14:05;;;;;;;33.08;17.50;;;;;;;;;;5066094;28;20089;-83
2021/12/09 02:16:32;;;;;;;32.47;16.85;;;;;;;;;;5064288;28;20468;-83
2021/12/09 02:18:58;;;;;;;34.95;15.90;;;;;;;;;;5070086;28;20037;-81
2021/12/09 02:21:26;;;;;;;28.05;16.58;;;;;;;;;;5065683;28;20490;-82
2021/12/09 02:23:54;;;;;;;34.17;18.23;;;;;;;;;;5070733;28;20021;-82
2021/12/09 02:26:23;;;;;;;40.00;20.88;;;;;;;;;;5074505;28;20035;-83
2021/12/09 02:28:50;;;;;;;35.92;19.38;;;;;;;;;;5051629;28;20037;-84
2021/12/09 02:31:16;;;;;;;39.72;19.80;;;;;;;;;;5076028;28;20055;-81
2021/12/09 02:33:43;;;;;;;36.80;19.30;;;;;;;;;;5056887;28;20033;-83
2021/12/09 02:36:09;;;;;;;38.20;20.20;;;;;;;;;;5057886;28;20108;-82
2021/12/09 02:38:43;;;;;;;39.95;19.38;;;;;;;;;;5048794;28;20055;-83
2021/12/09 02:41:14;;;;;;;37.80;20.15;;;;;;;;;;5046460;28;20122;-84
2021/12/09 02:43:41;;;;;;;40.25;20.58;;;;;;;;;;5050823;28;20033;-81
2021/12/09 02:46:07;;;;;;;34.83;19.92;;;;;;;;;;5049994;28;20021;-84
2021/12/09 02:48:34;;;;;;;37.15;21.48;;;;;;;;;;5049385;28;20060;-83
2021/12/09 02:51:01;;;;;;;44.08;20.35;;;;;;;;;;5049609;28;20039;-82
2021/12/09 02:53:28;;;;;;;36.63;19.67;;;;;;;;;;5052932;28;20033;-84
2021/12/09 02:55:54;;;;;;;41.33;21.05;;;;;;;;;;5052990;28;20045;-83
2021/12/09 02:58:48;;;;;;;44.72;22.67;;;;;;;;;;5056467;28;20036;-84
2021/12/09 03:01:20;;;;;;;48.90;24.67;;;;;;;;;;5041092;28;20346;-83
2021/12/09 03:03:54;;;;;;;46.20;25.45;;;;;;;;;;5047267;28;20091;-82
2021/12/09 03:06:22;;;;;;;43.15;23.90;;;;;;;;;;5049977;28;20473;-84
2021/12/09 03:08:49;;;;;;;43.67;24.95;;;;;;;;;;5045580;28;20048;-84
2021/12/09 03:11:19;;;;;;;44.80;22.63;;;;;;;;;;5044929;28;20029;-82
2021/12/09 03:13:46;;;;;;;46.28;24.45;;;;;;;;;;5043361;28;20041;-83
2021/12/09 03:16:13;;;;;;;45.90;25.45;;;;;;;;;;5038488;28;20041;-84
2021/12/09 03:18:40;;;;;;;51.70;27.08;;;;;;;;;;5039836;28;20440;-84
2021/12/09 03:21:13;;;;;;;49.63;27.23;;;;;;;;;;5042070;28;20040;-84
2021/12/09 03:23:40;;;;;;;57.80;29.90;;;;;;;;;;5046598;28;20030;-83
2021/12/09 03:26:08;;;;;;;51.80;29.17;;;;;;;;;;5039222;28;20462;-84
2021/12/09 03:28:35;;;;;;;51.80;29.48;;;;;;;;;;5038827;28;20044;-84
2021/12/09 03:31:02;;;;;;;61.67;33.55;;;;;;;;;;5038464;28;20052;-82
2021/12/09 03:33:28;;;;;;;65.72;35.88;;;;;;;;;;5044421;28;20029;-83
2021/12/09 03:36:02;;;;;;;66.70;34.83;;;;;;;;;;5042248;28;20056;-84
2021/12/09 03:38:28;;;;;;;51.38;27.88;;;;;;;;;;5045498;28;20423;-83
2021/12/09 03:40:55;;;;;;;45.42;22.85;;;;;;;;;;5042566;28;20024;-82
2021/12/09 03:43:22;;;;;;;44.97;23.77;;;;;;;;;;5051723;28;20044;-85
2021/12/09 03:45:50;;;;;;;50.38;24.52;;;;;;;;;;5043790;28;20024;-84
2021/12/09 03:48:19;;;;;;;47.35;25.52;;;;;;;;;;5046225;28;20039;-83
2021/12/09 03:50:45;;;;;;;55.25;28.13;;;;;;;;;;5041591;28;20076;-84
2021/12/09 03:53:14;;;;;;;61.75;33.95;;;;;;;;;;5042862;28;20033;-84
2021/12/09 03:55:41;;;;;;;68.55;36.40;;;;;;;;;;5047439;28;20398;-82
2021/12/09 03:58:08;;;;;;;65.28;31.42;;;;;;;;;;5043268;28;20124;-84
2021/12/09 04:00:34;;;;;;;60.75;30.55;;;;;;;;;;5046630;28;20025;-81
2021/12/09 04:03:00;;;;;;;50.22;25.92;;;;;;;;;;5048435;28;20108;-83
2021/12/09 04:05:27;;;;;;;57.20;28.75;;;;;;;;;;5041118;28;20037;-83
2021/12/09 04:07:54;;;;;;;56.35;25.35;;;;;;;;;;5048039;28;20400;-84
2021/12/09 04:10:20;;;;;;;47.78;21.30;;;;;;;;;;5047272;28;20112;-86
2021/12/09 04:12:47;;;;;;;50.80;23.58;;;;;;;;;;5038764;28;20033;-85
2021/12/09 04:15:13;;;;;;;46.75;21.98;;;;;;;;;;5042591;28;20030;-86
2021/12/09 04:17:40;;;;;;;54.50;27.77;;;;;;;;;;5042917;28;20380;-85
2021/12/09 04:20:09;;;;;;;52.65;24.45;;;;;;;;;;5039900;28;21185;-85
2021/12/09 04:22:36;;;;;;;63.08;30.17;;;;;;;;;;5042712;28;20037;-83
2021/12/09 04:25:03;;;;;;;57.10;27.45;;;;;;;;;;5041557;28;20028;-82
2021/12/09 04:27:30;;;;;;;56.55;27.35;;;;;;;;;;5041024;28;20029;-85
2021/12/09 04:29:56;;;;;;;58.78;27.88;;;;;;;;;;5040763;28;20043;-81
2021/12/09 04:32:23;;;;;;;62.40;30.30;;;;;;;;;;5040964;28;20033;-82
2021/12/09 04:34:53;;;;;;;55.28;25.58;;;;;;;;;;5039967;28;20389;-83
2021/12/09 04:37:20;;;;;;;46.45;21.23;;;;;;;;;;4994171;28;1830922;-80
2021/12/09 04:39:47;;;;;;;45.42;22.80;;;;;;;;;;5061077;28;20800;-83
2021/12/09 04:42:13;;;;;;;46.42;19.95;;;;;;;;;;5043956;28;20029;-84
2021/12/09 04:44:40;;;;;;;39.92;17.67;;;;;;;;;;5066861;28;20361;-84
2021/12/09 04:47:09;;;;;;;43.40;18.60;;;;;;;;;;5065282;28;20048;-85
2021/12/09 04:49:35;;;;;;;43.72;20.92;;;;;;;;;;5063424;28;20447;-84
2021/12/09 04:52:03;;;;;;;43.80;18.13;;;;;;;;;;5046007;28;20115;-84
2021/12/09 04:54:30;;;;;;;43.80;18.77;;;;;;;;;;5059661;28;20519;-83
2021/12/09 04:57:00;;;;;;;49.20;21.30;;;;;;;;;;5068899;28;20020;-83
2021/12/09 04:59:26;;;;;;;38.03;17.58;;;;;;;;;;5053813;28;20025;-82
2021/12/09 05:01:52;;;;;;;36.65;15.88;;;;;;;;;;5043256;28;20074;-84
2021/12/09 05:04:19;;;;;;;44.65;20.95;;;;;;;;;;5061326;28;20025;-83
2021/12/09 05:06:45;;;;;;;46.03;19.95;;;;;;;;;;5075723;28;20127;-83
2021/12/09 05:09:16;;;;;;;45.30;19.75;;;;;;;;;;5081728;28;20089;-84
2021/12/09 05:14:09;;;;;;;41.85;17.30;;;;;;;;;;5060426;28;20458;-83
2021/12/09 05:16:37;;;;;;;40.17;19.23;;;;;;;;;;5049793;28;20123;-86
2021/12/09 05:19:04;;;;;;;42.58;19.38;;;;;;;;;;5066162;28;20467;-83
2021/12/09 05:21:36;;;;;;;54.17;22.83;;;;;;;;;;5045064;28;20523;-86
2021/12/09 05:24:04;;;;;;;70.80;31.35;;;;;;;;;;5065643;28;20121;-86
2021/12/09 05:26:40;;;;;;;73.15;35.85;;;;;;;;;;5062131;28;20039;-82
2021/12/09 05:29:06;;;;;;;75.28;31.92;;;;;;;;;;5062905;28;20043;-84
2021/12/09 05:34:18;;;;;;;53.55;26.55;;;;;;;;;;5069005;28;20039;-84
2021/12/09 05:36:44;;;;;;;59.17;31.08;;;;;;;;;;5047662;28;20052;-82
2021/12/09 05:39:12;;;;;;;62.75;29.73;;;;;;;;;;5061269;28;20053;-85
2021/12/09 05:41:39;;;;;;;63.60;30.88;;;;;;;;;;5060767;28;20082;-84
2021/12/09 05:44:06;;;;;;;62.20;31.60;;;;;;;;;;5044401;28;20033;-87
2021/12/09 05:46:36;;;;;;;64.95;32.15;;;;;;;;;;5042197;28;20085;-85
2021/12/09 05:49:04;;;;;;;62.97;29.90;;;;;;;;;;5038161;28;20036;-86
2021/12/09 05:51:31;;;;;;;63.03;31.23;;;;;;;;;;5064743;28;20029;-81
2021/12/09 05:53:57;;;;;;;60.72;31.40;;;;;;;;;;5056634;28;20083;-80
2021/12/09 05:56:24;;;;;;;50.67;29.92;;;;;;;;;;5067991;28;20032;-80
2021/12/09 05:58:50;;;;;;;55.50;31.75;;;;;;;;;;5065134;28;20035;-80
2021/12/09 06:01:16;;;;;;;68.32;33.28;;;;;;;;;;5043315;28;20068;-81
2021/12/09 06:03:43;;;;;;;51.92;29.55;;;;;;;;;;5062308;28;20025;-79
2021/12/09 06:06:11;;;;;;;61.03;32.28;;;;;;;;;;5058365;28;20022;-82
2021/12/09 06:08:39;;;;;;;63.55;31.40;;;;;;;;;;5043300;28;20464;-82
2021/12/09 06:11:10;;;;;;;54.60;30.85;;;;;;;;;;5062455;28;20036;-81
2021/12/09 06:13:37;;;;;;;54.63;32.08;;;;;;;;;;5061564;28;20502;-82
2021/12/09 06:16:05;;;;;;;52.80;28.45;;;;;;;;;;5064946;28;20028;-82
2021/12/09 06:18:32;;;;;;;60.00;28.75;;;;;;;;;;5059870;28;20052;-80
2021/12/09 06:20:59;;;;;;;55.75;30.27;;;;;;;;;;5039061;28;20047;-81
2021/12/09 06:23:26;;;;;;;58.33;30.30;;;;;;;;;;5040263;28;20419;-81
2021/12/09 06:25:52;;;;;;;56.50;30.67;;;;;;;;;;5059698;28;20024;-82
2021/12/09 06:28:19;;;;;;;54.60;24.98;;;;;;;;;;5039823;28;20029;-82
2021/12/09 06:30:46;;;;;;;51.83;26.33;;;;;;;;;;5062726;28;20082;-82
2021/12/09 06:33:12;;;;;;;59.10;29.77;;;;;;;;;;5037536;28;20025;-81
2021/12/09 06:35:39;;;;;;;56.60;28.73;;;;;;;;;;5052995;28;20075;-80
2021/12/09 06:38:11;;;;;;;58.47;27.92;;;;;;;;;;5042954;28;20041;-80
2021/12/09 06:40:38;;;;;;;53.70;25.00;;;;;;;;;;5049797;28;20029;-82
2021/12/09 06:43:04;;;;;;;55.80;28.35;;;;;;;;;;5036529;28;20055;-81
2021/12/09 06:45:31;;;;;;;56.80;28.92;;;;;;;;;;5035924;28;20120;-82
2021/12/09 06:47:57;;;;;;;46.20;24.45;;;;;;;;;;5040473;28;20044;-81
2021/12/09 06:50:24;;;;;;;54.00;25.23;;;;;;;;;;5064169;28;20056;-81
2021/12/09 06:52:51;;;;;;;50.38;25.77;;;;;;;;;;5058223;28;20048;-81
2021/12/09 06:55:19;;;;;;;53.90;28.33;;;;;;;;;;5057535;28;20275;-81
2021/12/09 06:57:45;;;;;;;54.95;29.40;;;;;;;;;;5058602;28;20032;-82
2021/12/09 07:00:13;;;;;;;57.60;32.15;;;;;;;;;;5060912;28;20028;-81
2021/12/09 07:02:40;;;;;;;56.83;28.55;;;;;;;;;;5056940;28;20054;-82
2021/12/09 07:05:08;;;;;;;59.03;32.50;;;;;;;;;;5059423;28;20025;-80
2021/12/09 07:07:34;;;;;;;71.72;34.30;;;;;;;;;;5054533;28;20375;-82
2021/12/09 07:10:01;;;;;;;65.50;36.42;;;;;;;;;;5058366;28;20062;-82
2021/12/09 07:12:28;;;;;;;70.55;39.42;;;;;;;;;;5056619;28;21588;-81
2021/12/09 07:14:54;;;;;;;77.35;38.80;;;;;;;;;;5060632;28;20063;-81
2021/12/09 07:17:23;;;;;;;67.78;38.45;;;;;;;;;;5060108;28;20033;-82
2021/12/09 07:19:50;;;;;;;56.05;31.15;;;;;;;;;;5059559;28;20036;-82
2021/12/09 07:22:17;;;;;;;57.17;29.15;;;;;;;;;;5057461;28;20112;-81
2021/12/09 07:24:46;;;;;;;64.45;33.88;;;;;;;;;;5062539;28;20459;-82
2021/12/09 07:27:18;;;;;;;62.38;36.10;;;;;;;;;;5059135;28;20055;-82
2021/12/09 07:29:44;;;;;;;64.38;34.45;;;;;;;;;;5058914;28;20074;-82
2021/12/09 07:32:13;;;;;;;64.07;34.88;;;;;;;;;;5060330;28;20214;-80
2021/12/09 07:34:40;;;;;;;65.32;37.83;;;;;;;;;;5041685;28;20176;-82
2021/12/09 07:37:06;;;;;;;70.88;37.67;;;;;;;;;;5058464;28;20597;-84
2021/12/09 07:39:33;;;;;;;61.42;36.40;;;;;;;;;;5065529;28;20025;-81
2021/12/09 07:42:00;;;;;;;57.13;34.30;;;;;;;;;;5061218;28;20036;-81
2021/12/09 07:44:27;;;;;;;58.17;32.33;;;;;;;;;;5041425;28;20086;-83
2021/12/09 07:46:55;;;;;;;50.55;31.65;;;;;;;;;;5038719;28;20419;-83
2021/12/09 07:49:22;;;;;;;52.90;31.73;;;;;;;;;;5055262;28;20205;-82
2021/12/09 07:51:49;;;;;;;54.92;31.95;;;;;;;;;;5052912;28;20491;-82
2021/12/09 07:54:18;;;;;;;48.67;30.90;;;;;;;;;;5039376;28;20036;-81
2021/12/09 07:56:45;;;;;;;49.88;30.35;;;;;;;;;;5041600;28;20043;-81
2021/12/09 07:59:12;;;;;;;54.42;30.35;;;;;;;;;;5040230;28;20380;-82
2021/12/09 08:01:44;;;;;;;51.72;30.25;;;;;;;;;;5060514;28;20418;-81
2021/12/09 08:04:11;;;;;;;50.70;30.15;;;;;;;;;;5043601;28;20028;-81
2021/12/09 08:06:37;;;;;;;53.15;32.00;;;;;;;;;;5043253;28;20563;-82
2021/12/09 08:09:05;;;;;;;51.10;30.73;;;;;;;;;;5056166;28;20405;-82
2021/12/09 08:11:39;;;;;;;58.30;34.05;;;;;;;;;;5041593;28;20039;-80
2021/12/09 08:14:06;;;;;;;53.05;32.90;;;;;;;;;;5040301;28;20123;-80
2021/12/09 08:16:37;;;;;;;53.70;32.85;;;;;;;;;;5037650;28;20066;-82
2021/12/09 08:19:04;;;;;;;55.92;35.10;;;;;;;;;;5039179;28;20081;-82
2021/12/09 08:21:33;;;;;;;72.45;40.00;;;;;;;;;;5037249;28;20044;-82
2021/12/09 08:24:04;;;;;;;62.65;37.92;;;;;;;;;;5055860;28;20031;-82
2021/12/09 08:26:31;;;;;;;56.50;36.22;;;;;;;;;;5058907;28;20078;-83
2021/12/09 08:28:57;;;;;;;64.55;37.67;;;;;;;;;;5040870;28;20139;-80
2021/12/09 08:31:33;;;;;;;66.53;38.38;;;;;;;;;;5061413;28;20032;-83
2021/12/09 08:34:00;;;;;;;58.40;36.58;;;;;;;;;;5059177;28;20082;-82
2021/12/09 08:36:26;;;;;;;65.82;37.28;;;;;;;;;;5059106;28;20051;-83
2021/12/09 08:38:57;;;;;;;59.08;35.88;;;;;;;;;;5059937;28;20067;-83
2021/12/09 08:41:26;;;;;;;58.50;35.92;;;;;;;;;;5057166;28;20025;-82
2021/12/09 08:43:56;;;;;;;55.20;33.90;;;;;;;;;;5035951;28;20280;-82
2021/12/09 08:46:25;;;;;;;56.42;34.13;;;;;;;;;;5049718;28;20498;-81
2021/12/09 08:48:53;;;;;;;57.42;34.88;;;;;;;;;;5049211;28;20033;-82
2021/12/09 08:51:19;;;;;;;60.42;37.67;;;;;;;;;;5035694;28;20050;-81
2021/12/09 08:53:52;;;;;;;59.70;38.40;;;;;;;;;;5054989;28;20043;-81
2021/12/09 08:56:21;;;;;;;69.63;44.92;;;;;;;;;;5057425;28;20092;-82
2021/12/09 08:58:47;;;;;;;72.30;44.08;;;;;;;;;;5067394;28;20119;-81
2021/12/09 09:01:15;;;;;;;69.88;42.40;;;;;;;;;;5064746;28;20071;-81
2021/12/09 09:03:41;;;;;;;74.60;43.63;;;;;;;;;;5062912;28;20025;-82
2021/12/09 09:06:08;;;;;;;75.40;40.88;;;;;;;;;;5038109;28;20037;-83
2021/12/09 09:08:34;;;;;;;66.93;40.92;;;;;;;;;;5037219;28;20095;-84
2021/12/09 09:11:04;;;;;;;72.53;42.08;;;;;;;;;;5061062;28;20517;-83
2021/12/09 09:13:30;;;;;;;71.38;40.22;;;;;;;;;;5040186;28;20125;-83
2021/12/09 09:15:57;;;;;;;71.00;39.00;;;;;;;;;;5060589;28;20024;-82
2021/12/09 09:18:24;;;;;;;60.88;36.00;;;;;;;;;;5039425;28;20033;-86
2021/12/09 09:20:53;;;;;;;61.10;35.72;;;;;;;;;;5043683;28;20434;-81
2021/12/09 09:23:20;;;;;;;56.70;32.20;;;;;;;;;;5035026;28;20039;-84
2021/12/09 09:25:47;;;;;;;58.13;30.98;;;;;;;;;;5055393;28;20024;-82
2021/12/09 09:28:14;;;;;;;45.60;25.60;;;;;;;;;;5037877;28;20054;-82
2021/12/09 09:30:45;;;;;;;45.03;24.90;;;;;;;;;;5055031;28;20535;-82
2021/12/09 09:33:13;;;;;;;40.03;23.58;;;;;;;;;;5052158;28;20388;-82
2021/12/09 09:35:40;;;;;;;46.28;22.73;;;;;;;;;;5035033;28;20041;-81
2021/12/09 09:38:10;;;;;;;40.97;23.80;;;;;;;;;;5034063;28;20107;-83
2021/12/09 09:40:45;;;;;;;49.90;27.25;;;;;;;;;;5043531;28;20028;-85
2021/12/09 09:43:27;;;;;;;47.10;25.48;;;;;;;;;;5044444;28;20029;-83
2021/12/09 09:45:59;;;;;;;49.90;26.05;;;;;;;;;;5044569;28;20025;-82
2021/12/09 09:48:29;;;;;;;51.95;28.48;;;;;;;;;;5041917;28;20038;-83
2021/12/09 09:50:55;;;;;;;51.88;28.42;;;;;;;;;;5042097;28;20045;-83
2021/12/09 09:53:22;;;;;;;49.28;26.08;;;;;;;;;;5044675;28;20219;-82
2021/12/09 09:55:48;;;;;;;46.75;26.63;;;;;;;;;;5037875;28;20060;-83
2021/12/09 09:58:18;;;;;;;56.67;29.60;;;;;;;;;;5031530;28;20404;-83
2021/12/09 10:00:44;;;;;;;54.03;28.92;;;;;;;;;;5031266;28;21258;-82
2021/12/09 10:03:16;;;;;;;59.35;29.38;;;;;;;;;;5035822;28;20829;-79
2021/12/09 10:05:44;;;;;;;57.92;30.23;;;;;;;;;;5036511;28;20108;-81
2021/12/09 10:08:13;;;;;;;58.92;32.35;;;;;;;;;;5040174;28;20054;-83
2021/12/09 10:10:40;;;;;;;61.53;31.83;;;;;;;;;;5041473;28;20067;-82
2021/12/09 10:13:08;;;;;;;65.30;33.08;;;;;;;;;;5040520;28;20033;-80
2021/12/09 10:15:40;;;;;;;64.95;33.72;;;;;;;;;;5039066;28;20037;-81
2021/12/09 10:18:07;;;;;;;72.22;36.13;;;;;;;;;;5038518;28;20827;-80
2021/12/09 10:20:44;;;;;;;65.35;35.75;;;;;;;;;;5040163;28;20028;-80
2021/12/09 10:23:29;;;;;;;66.43;36.38;;;;;;;;;;5031555;28;20042;-82
2021/12/09 10:26:18;;;;;;;70.43;34.95;;;;;;;;;;5038732;28;20029;-80
2021/12/09 10:28:49;;;;;;;62.88;36.47;;;;;;;;;;5035110;28;20029;-81
2021/12/09 10:31:17;;;;;;;88.05;37.92;;;;;;;;;;5032736;28;20162;-80
2021/12/09 10:34:11;;;;;;;73.15;39.63;;;;;;;;;;5035085;28;20036;-82
2021/12/09 10:36:42;;;;;;;85.43;44.88;;;;;;;;;;5044691;28;20457;-79
2021/12/09 10:39:18;;;;;;;85.57;45.30;;;;;;;;;;5053090;28;20044;-81
2021/12/09 10:41:45;;;;;;;92.40;47.28;;;;;;;;;;5037645;28;20029;-80
2021/12/09 10:44:12;;;;;;;79.32;44.75;;;;;;;;;;5038875;28;20425;-81
2021/12/09 10:46:48;;;;;;;78.20;48.65;;;;;;;;;;5057849;28;20633;-82
2021/12/09 10:49:16;;;;;;;85.20;52.35;;;;;;;;;;5054878;28;20041;-81
2021/12/09 10:51:55;;;;;;;94.22;52.65;;;;;;;;;;5058266;28;20040;-81
2021/12/09 10:54:35;;;;;;;80.18;46.03;;;;;;;;;;5041068;28;20037;-83
2021/12/09 10:57:20;;;;;;;84.75;47.25;;;;;;;;;;5057776;28;20029;-81
2021/12/09 10:59:46;;;;;;;74.53;45.60;;;;;;;;;;5066420;28;20032;-81
2021/12/09 11:02:16;;;;;;;85.38;45.35;;;;;;;;;;5060679;28;20119;-81
2021/12/09 11:04:56;;;;;;;81.60;47.60;;;;;;;;;;5060564;28;20032;-82
2021/12/09 11:07:30;;;;;;;116.03;78.50;;;;;;;;;;5058100;28;20086;-81
2021/12/09 11:10:17;;;;;;;114.18;81.63;;;;;;;;;;5043880;28;20672;-81
2021/12/09 11:12:58;;;;;;;92.20;56.95;;;;;;;;;;5057341;28;20035;-82
2021/12/09 11:15:45;;;;;;;108.00;65.68;;;;;;;;;;5038281;28;20029;-82
2021/12/09 11:18:30;;;;;;;115.78;76.57;;;;;;;;;;5039698;28;20040;-79
2021/12/09 11:20:56;;;;;;;110.47;77.55;;;;;;;;;;5036850;28;20023;-82
2021/12/09 11:23:27;;;;;;;98.47;54.67;;;;;;;;;;5040045;28;20032;-81
2021/12/09 11:25:57;;;;;;;85.97;50.28;;;;;;;;;;5055514;28;20496;-81
2021/12/09 11:28:25;;;;;;;86.75;45.42;;;;;;;;;;5052248;28;20029;-80
2021/12/09 11:31:28;;;;;;;97.43;54.33;;;;;;;;;;5054671;28;20359;-81
2021/12/09 11:34:01;;;;;;;74.78;42.67;;;;;;;;;;5056703;28;20021;-81
2021/12/09 11:36:47;;;;;;;79.05;37.78;;;;;;;;;;5039984;28;20037;-80
2021/12/09 11:39:23;;;;;;;85.25;42.05;;;;;;;;;;5040979;28;20036;-80
2021/12/09 11:41:50;;;;;;;80.25;41.78;;;;;;;;;;5058655;28;20047;-80
2021/12/09 11:44:19;;;;;;;81.30;39.13;;;;;;;;;;5060021;28;20021;-84
2021/12/09 11:46:57;;;;;;;82.85;41.15;;;;;;;;;;5048563;28;20036;-81
2021/12/09 11:49:23;;;;;;;87.22;43.58;;;;;;;;;;5062085;28;20066;-80
2021/12/09 11:51:50;;;;;;;88.50;44.00;;;;;;;;;;5062767;28;20032;-83
2021/12/09 11:54:16;;;;;;;84.25;42.17;;;;;;;;;;5049011;28;20028;-81
2021/12/09 11:57:34;;;;;;;91.93;46.78;;;;;;;;;;5065987;28;20479;-82
2021/12/09 12:11:11;;;;;;;96.55;53.55;;;;;;;;;;5061798;28;20160;-83
2021/12/09 12:11:31;;;;;;;97.55;56.90;;;;;;;;;;5059926;28;20277;-81
2021/12/09 12:14:04;;;;;;;99.65;54.97;;;;;;;;;;5043756;28;20105;-82
2021/12/09 12:19:44;;;;;;;97.18;54.05;;;;;;;;;;5056609;28;20111;-80
2021/12/09 12:26:36;;;;;;;114.22;61.35;;;;;;;;;;4980313;28;20081;-81
2021/12/09 12:33:53;;;;;;;100.95;53.63;;;;;;;;;;5062402;28;20382;-81
2021/12/09 12:37:02;;;;;;;85.05;45.67;;;;;;;;;;5043703;28;20036;-81
2021/12/09 12:39:34;;;;;;;71.47;35.35;;;;;;;;;;5063769;28;20041;-81
2021/12/09 12:42:06;;;;;;;64.75;34.47;;;;;;;;;;5060178;28;20052;-82
2021/12/09 12:44:32;;;;;;;59.88;33.33;;;;;;;;;;5040936;28;20029;-81
2021/12/09 12:47:13;;;;;;;60.03;34.10;;;;;;;;;;5062730;28;20028;-82
2021/12/09 12:49:46;;;;;;;72.43;35.42;;;;;;;;;;5044524;28;20029;-81
2021/12/09 12:52:24;;;;;;;77.00;36.83;;;;;;;;;;5047975;28;20490;-82
2021/12/09 12:54:58;;;;;;;70.00;36.72;;;;;;;;;;5039233;28;20539;-80
2021/12/09 12:57:28;;;;;;;69.85;38.45;;;;;;;;;;5050145;28;20036;-82
2021/12/09 13:00:12;;;;;;;77.85;42.10;;;;;;;;;;5068089;28;20111;-80
2021/12/09 13:03:01;;;;;;;77.93;45.45;;;;;;;;;;5070978;28;20043;-82
2021/12/09 13:05:49;;;;;;;77.05;42.78;;;;;;;;;;5064331;28;20395;-81
2021/12/09 13:13:45;;;;;;;85.38;46.00;;;;;;;;;;5066038;28;20233;-80
2021/12/09 13:16:41;;;;;;;84.97;49.80;;;;;;;;;;5065819;28;20027;-80
2021/12/09 13:19:18;;;;;;;108.10;59.53;;;;;;;;;;5062150;28;20411;-80
2021/12/09 13:21:58;;;;;;;94.28;55.03;;;;;;;;;;5071830;28;20551;-80
2021/12/09 13:30:19;;;;;;;157.75;90.78;;;;;;;;;;5060354;28;20130;-80
2021/12/09 13:47:19;;;;;;;196.80;108.32;;;;;;;;;;5008346;28;20021;-82
2021/12/09 13:50:13;;;;;;;148.05;84.03;;;;;;;;;;5002986;28;20026;-79
2021/12/09 13:55:07;;;;;;;141.07;74.68;;;;;;;;;;5057771;28;20024;-82
2021/12/09 13:57:39;;;;;;;136.52;69.50;;;;;;;;;;5068627;28;20021;-82
2021/12/09 14:00:08;;;;;;;139.15;72.18;;;;;;;;;;5066076;28;20604;-80
2021/12/09 14:02:34;;;;;;;121.97;64.85;;;;;;;;;;5072459;28;20036;-81
2021/12/09 14:05:01;;;;;;;110.28;57.08;;;;;;;;;;5066538;28;20472;-80
2021/12/09 14:07:30;;;;;;;109.90;56.72;;;;;;;;;;5064065;28;20071;-78
2021/12/09 14:09:58;;;;;;;100.03;50.83;;;;;;;;;;5073645;28;20025;-79
2021/12/09 14:12:34;;;;;;;93.18;46.25;;;;;;;;;;5066094;28;20330;-80
2021/12/09 14:15:09;;;;;;;80.95;41.67;;;;;;;;;;5060706;28;20021;-81
2021/12/09 14:17:39;;;;;;;82.55;42.78;;;;;;;;;;5063404;28;20146;-80
2021/12/09 14:20:15;;;;;;;82.50;43.38;;;;;;;;;;5059692;28;20620;-81
2021/12/09 14:22:43;;;;;;;89.32;44.00;;;;;;;;;;5062480;28;20074;-81
2021/12/09 14:25:21;;;;;;;90.85;46.13;;;;;;;;;;5058086;28;20035;-80
2021/12/09 14:27:51;;;;;;;90.28;44.08;;;;;;;;;;5064046;28;20070;-80
2021/12/09 14:30:18;;;;;;;79.80;42.88;;;;;;;;;;5045378;28;20525;-82
2021/12/09 14:32:49;;;;;;;95.50;45.17;;;;;;;;;;5066101;28;20032;-83
2021/12/09 14:35:21;;;;;;;88.60;48.50;;;;;;;;;;5043916;28;20519;-82
2021/12/09 14:37:49;;;;;;;97.60;51.78;;;;;;;;;;5045145;28;20044;-83
2021/12/09 14:40:19;;;;;;;102.72;50.83;;;;;;;;;;5065622;28;20021;-82
2021/12/09 14:42:55;;;;;;;99.53;47.85;;;;;;;;;;5057009;28;20032;-80
2021/12/09 14:45:22;;;;;;;96.28;49.25;;;;;;;;;;5063905;28;20037;-80
2021/12/09 14:48:09;;;;;;;98.28;49.35;;;;;;;;;;5073172;28;20029;-80
2021/12/09 14:50:40;;;;;;;94.07;50.60;;;;;;;;;;5074130;28;20062;-81
2021/12/09 14:53:06;;;;;;;98.90;49.33;;;;;;;;;;5080481;28;20032;-81
2021/12/09 14:55:38;;;;;;;93.63;51.47;;;;;;;;;;5053311;28;21290;-82
2021/12/09 14:58:09;;;;;;;98.32;53.40;;;;;;;;;;5063569;28;20025;-81
2021/12/09 15:00:54;;;;;;;96.25;49.40;;;;;;;;;;5075747;28;20029;-81
2021/12/09 15:03:35;;;;;;;102.40;54.30;;;;;;;;;;5075208;28;20020;-81
2021/12/09 15:06:02;;;;;;;110.05;55.45;;;;;;;;;;5057697;28;20036;-81
2021/12/09 15:08:29;;;;;;;107.57;53.38;;;;;;;;;;5046159;28;20032;-82
2021/12/09 15:10:57;;;;;;;100.82;52.25;;;;;;;;;;5037689;28;20499;-82
2021/12/09 15:13:25;;;;;;;101.72;48.92;;;;;;;;;;5062687;28;20028;-81
2021/12/09 15:16:04;;;;;;;97.63;48.78;;;;;;;;;;5056372;28;20025;-82
2021/12/09 15:18:31;;;;;;;102.97;51.72;;;;;;;;;;5062121;28;20033;-81
2021/12/09 15:21:08;;;;;;;106.07;51.97;;;;;;;;;;5070696;28;20033;-81
2021/12/09 15:23:44;;;;;;;109.38;54.25;;;;;;;;;;5056898;28;20079;-81
2021/12/09 15:26:24;;;;;;;108.18;56.17;;;;;;;;;;5075163;28;20024;-81